sensor_id;sensor_type;location;lat;lon;timestamp;pressure;altitude;pressure_sealevel;temperature;humidity
27294;BME280;14785;52.556;13.430;2023-02-28T00:00:32;102314.94;;;5.86;100.00
27294;BME280;14785;52.556;13.430;2023-02-28T00:02:58;102308.94;;;6.14;100.00
27294;BME280;14785;52.556;13.430;2023-02-28T00:05:25;102310.19;;;6.22;100.00
27294;BME280;14785;52.556;13.430;2023-02-28T00:07:52;102304.50;;;6.14;100.00
27294;BME280;14785;52.556;13.430;2023-02-28T00:10:20;102309.31;;;6.37;100.00
27294;BME280;14785;52.556;13.430;2023-02-28T00:12:59;102308.78;;;6.60;100.00
27294;BME280;14785;52.556;13.430;2023-02-28T00:15:25;102306.59;;;6.23;100.00
27294;BME280;14785;52.556;13.430;2023-02-28T00:17:51;102311.84;;;6.09;100.00
27294;BME280;14785;52.556;13.430;2023-02-28T00:20:16;102314.34;;;6.26;100.00
27294;BME280;14785;52.556;13.430;2023-02-28T00:22:46;102311.09;;;6.37;100.00
27294;BME280;14785;52.556;13.430;2023-02-28T00:25:15;102308.34;;;6.38;100.00
27294;BME280;14785;52.556;13.430;2023-02-28T00:27:40;102313.53;;;6.69;100.00
27294;BME280;14785;52.556;13.430;2023-02-28T00:30:09;102311.25;;;6.63;100.00
27294;BME280;14785;52.556;13.430;2023-02-28T00:32:36;102309.59;;;6.90;100.00
27294;BME280;14785;52.556;13.430;2023-02-28T00:35:03;102316.03;;;6.86;100.00
27294;BME280;14785;52.556;13.430;2023-02-28T00:37:28;102317.31;;;6.65;100.00
27294;BME280;14785;52.556;13.430;2023-02-28T00:39:54;102316.72;;;6.60;100.00
27294;BME280;14785;52.556;13.430;2023-02-28T00:42:19;102316.34;;;6.52;100.00
27294;BME280;14785;52.556;13.430;2023-02-28T00:44:45;102314.63;;;6.51;100.00
27294;BME280;14785;52.556;13.430;2023-02-28T00:47:10;102320.69;;;6.53;100.00
27294;BME280;14785;52.556;13.430;2023-02-28T00:49:36;102317.50;;;6.62;100.00
27294;BME280;14785;52.556;13.430;2023-02-28T00:52:01;102314.97;;;6.75;100.00
27294;BME280;14785;52.556;13.430;2023-02-28T00:54:27;102320.53;;;6.70;100.00
27294;BME280;14785;52.556;13.430;2023-02-28T00:56:52;102323.28;;;6.69;100.00
27294;BME280;14785;52.556;13.430;2023-02-28T00:59:20;102318.63;;;6.72;100.00
27294;BME280;14785;52.556;13.430;2023-02-28T01:01:46;102322.06;;;6.74;100.00
27294;BME280;14785;52.556;13.430;2023-02-28T01:04:13;102316.06;;;6.57;100.00
27294;BME280;14785;52.556;13.430;2023-02-28T01:06:39;102311.78;;;6.40;100.00
27294;BME280;14785;52.556;13.430;2023-02-28T01:09:07;102313.56;;;6.40;100.00
27294;BME280;14785;52.556;13.430;2023-02-28T01:11:33;102315.69;;;6.33;100.00
27294;BME280;14785;52.556;13.430;2023-02-28T01:13:59;102314.31;;;6.42;100.00
27294;BME280;14785;52.556;13.430;2023-02-28T01:16:25;102313.47;;;6.41;100.00
27294;BME280;14785;52.556;13.430;2023-02-28T01:18:50;102310.22;;;6.36;100.00
27294;BME280;14785;52.556;13.430;2023-02-28T01:21:18;102314.88;;;6.17;100.00
27294;BME280;14785;52.556;13.430;2023-02-28T01:23:44;102304.50;;;6.14;100.00
27294;BME280;14785;52.556;13.430;2023-02-28T01:26:12;102313.63;;;6.09;100.00
27294;BME280;14785;52.556;13.430;2023-02-28T01:28:38;102308.75;;;6.17;100.00
27294;BME280;14785;52.556;13.430;2023-02-28T01:31:04;102303.31;;;6.04;100.00
27294;BME280;14785;52.556;13.430;2023-02-28T01:33:30;102296.69;;;5.97;100.00
27294;BME280;14785;52.556;13.430;2023-02-28T01:38:25;102296.69;;;5.81;100.00
27294;BME280;14785;52.556;13.430;2023-02-28T01:40:50;102304.38;;;6.02;100.00
27294;BME280;14785;52.556;13.430;2023-02-28T01:46:07;102297.88;;;5.76;100.00
27294;BME280;14785;52.556;13.430;2023-02-28T01:48:37;102297.88;;;5.76;100.00
27294;BME280;14785;52.556;13.430;2023-02-28T01:51:14;102289.28;;;5.88;100.00
27294;BME280;14785;52.556;13.430;2023-02-28T01:53:46;102295.50;;;5.87;100.00
27294;BME280;14785;52.556;13.430;2023-02-28T01:56:14;102292.03;;;5.87;100.00
27294;BME280;14785;52.556;13.430;2023-02-28T01:58:47;102296.53;;;6.00;100.00
27294;BME280;14785;52.556;13.430;2023-02-28T02:01:12;102302.25;;;5.93;100.00
27294;BME280;14785;52.556;13.430;2023-02-28T02:03:48;102301.47;;;6.06;100.00
27294;BME280;14785;52.556;13.430;2023-02-28T02:06:23;102297.88;;;6.07;100.00
27294;BME280;14785;52.556;13.430;2023-02-28T02:08:49;102292.31;;;6.12;100.00
27294;BME280;14785;52.556;13.430;2023-02-28T02:11:18;102295.50;;;6.03;100.00
27294;BME280;14785;52.556;13.430;2023-02-28T02:34:09;102282.38;;;5.70;100.00
27294;BME280;14785;52.556;13.430;2023-02-28T02:39:33;102294.28;;;5.61;100.00
27294;BME280;14785;52.556;13.430;2023-02-28T02:42:02;102294.28;;;5.46;100.00
27294;BME280;14785;52.556;13.430;2023-02-28T02:44:40;102295.66;;;5.53;100.00
27294;BME280;14785;52.556;13.430;2023-02-28T02:47:17;102294.78;;;5.37;100.00
27294;BME280;14785;52.556;13.430;2023-02-28T02:49:55;102294.28;;;5.46;100.00
27294;BME280;14785;52.556;13.430;2023-02-28T02:52:28;102296.47;;;5.38;100.00
27294;BME280;14785;52.556;13.430;2023-02-28T02:54:56;102299.63;;;5.29;100.00
27294;BME280;14785;52.556;13.430;2023-02-28T02:57:33;102301.94;;;5.35;100.00
27294;BME280;14785;52.556;13.430;2023-02-28T03:00:03;102300.72;;;5.25;100.00
27294;BME280;14785;52.556;13.430;2023-02-28T03:02:34;102300.13;;;5.20;100.00
27294;BME280;14785;52.556;13.430;2023-02-28T03:05:14;102302.50;;;5.09;100.00
27294;BME280;14785;52.556;13.430;2023-02-28T03:07:42;102296.13;;;5.13;100.00
27294;BME280;14785;52.556;13.430;2023-02-28T03:13:05;102301.38;;;5.13;100.00
27294;BME280;14785;52.556;13.430;2023-02-28T03:16:01;102305.47;;;5.03;100.00
27294;BME280;14785;52.556;13.430;2023-02-28T03:18:40;102309.66;;;4.90;100.00
27294;BME280;14785;52.556;13.430;2023-02-28T03:26:26;102309.16;;;4.99;100.00
27294;BME280;14785;52.556;13.430;2023-02-28T03:31:37;102319.28;;;4.74;100.00
27294;BME280;14785;52.556;13.430;2023-02-28T03:34:16;102321.69;;;4.78;100.00
27294;BME280;14785;52.556;13.430;2023-02-28T03:36:55;102319.06;;;4.61;100.00
27294;BME280;14785;52.556;13.430;2023-02-28T03:39:37;102316.03;;;4.69;100.00
27294;BME280;14785;52.556;13.430;2023-02-28T03:42:09;102314.19;;;4.71;100.00
27294;BME280;14785;52.556;13.430;2023-02-28T03:44:45;102318.91;;;4.64;100.00
27294;BME280;14785;52.556;13.430;2023-02-28T03:47:17;102312.09;;;4.60;100.00
27294;BME280;14785;52.556;13.430;2023-02-28T03:49:57;102315.72;;;4.75;100.00
27294;BME280;14785;52.556;13.430;2023-02-28T03:52:27;102317.75;;;4.70;100.00
27294;BME280;14785;52.556;13.430;2023-02-28T03:54:59;102318.81;;;4.66;100.00
27294;BME280;14785;52.556;13.430;2023-02-28T03:57:37;102318.59;;;4.53;100.00
27294;BME280;14785;52.556;13.430;2023-02-28T04:00:13;102320.84;;;4.44;100.00
27294;BME280;14785;52.556;13.430;2023-02-28T04:02:39;102320.94;;;4.42;100.00
27294;BME280;14785;52.556;13.430;2023-02-28T04:05:06;102319.97;;;4.43;100.00
27294;BME280;14785;52.556;13.430;2023-02-28T04:07:32;102317.44;;;4.42;100.00
27294;BME280;14785;52.556;13.430;2023-02-28T04:09:59;102327.59;;;4.32;100.00
27294;BME280;14785;52.556;13.430;2023-02-28T04:12:24;102322.47;;;4.46;100.00
27294;BME280;14785;52.556;13.430;2023-02-28T04:14:50;102312.06;;;4.43;100.00
27294;BME280;14785;52.556;13.430;2023-02-28T04:17:16;102315.41;;;4.47;100.00
27294;BME280;14785;52.556;13.430;2023-02-28T04:19:42;102326.97;;;4.44;100.00
27294;BME280;14785;52.556;13.430;2023-02-28T04:22:08;102322.41;;;4.31;100.00
27294;BME280;14785;52.556;13.430;2023-02-28T04:24:34;102319.47;;;4.37;100.00
27294;BME280;14785;52.556;13.430;2023-02-28T04:27:00;102325.88;;;4.31;100.00
27294;BME280;14785;52.556;13.430;2023-02-28T04:29:30;102327.50;;;4.34;100.00
27294;BME280;14785;52.556;13.430;2023-02-28T04:31:56;102326.34;;;4.39;100.00
27294;BME280;14785;52.556;13.430;2023-02-28T04:34:26;102319.75;;;4.31;100.00
27294;BME280;14785;52.556;13.430;2023-02-28T04:36:52;102330.91;;;4.19;100.00
27294;BME280;14785;52.556;13.430;2023-02-28T04:39:22;102330.56;;;4.08;100.00
27294;BME280;14785;52.556;13.430;2023-02-28T04:41:48;102330.31;;;3.76;100.00
27294;BME280;14785;52.556;13.430;2023-02-28T04:44:14;102332.13;;;3.57;100.00
27294;BME280;14785;52.556;13.430;2023-02-28T04:46:41;102329.97;;;3.28;100.00
27294;BME280;14785;52.556;13.430;2023-02-28T04:49:06;102331.72;;;3.09;100.00
27294;BME280;14785;52.556;13.430;2023-02-28T04:51:32;102333.09;;;3.73;100.00
27294;BME280;14785;52.556;13.430;2023-02-28T04:53:57;102332.50;;;4.04;100.00
27294;BME280;14785;52.556;13.430;2023-02-28T04:56:23;102327.09;;;4.07;100.00
27294;BME280;14785;52.556;13.430;2023-02-28T04:58:48;102327.03;;;4.26;100.00
27294;BME280;14785;52.556;13.430;2023-02-28T05:01:25;102336.47;;;4.30;100.00
27294;BME280;14785;52.556;13.430;2023-02-28T05:03:52;102334.63;;;4.32;100.00
27294;BME280;14785;52.556;13.430;2023-02-28T05:06:18;102338.50;;;4.42;100.00
27294;BME280;14785;52.556;13.430;2023-02-28T05:08:43;102344.81;;;4.21;100.00
27294;BME280;14785;52.556;13.430;2023-02-28T05:11:19;102337.09;;;4.35;100.00
27294;BME280;14785;52.556;13.430;2023-02-28T05:13:45;102344.44;;;4.28;100.00
27294;BME280;14785;52.556;13.430;2023-02-28T05:16:10;102344.38;;;4.30;100.00
27294;BME280;14785;52.556;13.430;2023-02-28T05:18:36;102338.50;;;4.42;100.00
27294;BME280;14785;52.556;13.430;2023-02-28T05:21:02;102346.72;;;4.53;100.00
27294;BME280;14785;52.556;13.430;2023-02-28T05:23:28;102343.91;;;4.39;100.00
27294;BME280;14785;52.556;13.430;2023-02-28T05:25:54;102349.78;;;4.27;100.00
27294;BME280;14785;52.556;13.430;2023-02-28T05:28:20;102348.25;;;4.23;100.00
27294;BME280;14785;52.556;13.430;2023-02-28T05:30:46;102350.38;;;4.15;100.00
27294;BME280;14785;52.556;13.430;2023-02-28T05:33:12;102354.59;;;4.19;100.00
27294;BME280;14785;52.556;13.430;2023-02-28T05:35:41;102345.84;;;4.18;100.00
27294;BME280;14785;52.556;13.430;2023-02-28T05:38:08;102350.09;;;4.21;100.00
27294;BME280;14785;52.556;13.430;2023-02-28T05:40:34;102352.13;;;4.16;100.00
27294;BME280;14785;52.556;13.430;2023-02-28T05:42:59;102359.06;;;4.17;100.00
27294;BME280;14785;52.556;13.430;2023-02-28T05:45:25;102353.28;;;4.27;100.00
27294;BME280;14785;52.556;13.430;2023-02-28T05:47:55;102354.59;;;4.19;100.00
27294;BME280;14785;52.556;13.430;2023-02-28T05:50:21;102357.38;;;4.16;100.00
27294;BME280;14785;52.556;13.430;2023-02-28T05:52:50;102357.81;;;4.07;100.00
27294;BME280;14785;52.556;13.430;2023-02-28T05:55:16;102360.75;;;4.01;100.00
27294;BME280;14785;52.556;13.430;2023-02-28T05:57:41;102354.69;;;3.98;100.00
27294;BME280;14785;52.556;13.430;2023-02-28T06:00:09;102364.19;;;4.03;100.00
27294;BME280;14785;52.556;13.430;2023-02-28T06:02:34;102368.50;;;4.04;100.00
27294;BME280;14785;52.556;13.430;2023-02-28T06:05:00;102356.59;;;4.14;100.00
27294;BME280;14785;52.556;13.430;2023-02-28T06:07:26;102361.53;;;4.03;100.00
27294;BME280;14785;52.556;13.430;2023-02-28T06:09:51;102359.97;;;3.98;100.00
27294;BME280;14785;52.556;13.430;2023-02-28T06:12:17;102361.25;;;3.90;100.00
27294;BME280;14785;52.556;13.430;2023-02-28T06:14:43;102368.94;;;3.94;100.00
27294;BME280;14785;52.556;13.430;2023-02-28T06:17:09;102372.97;;;4.02;100.00
27294;BME280;14785;52.556;13.430;2023-02-28T06:19:37;102371.72;;;3.91;100.00
27294;BME280;14785;52.556;13.430;2023-02-28T06:22:05;102372.22;;;4.00;100.00
27294;BME280;14785;52.556;13.430;2023-02-28T06:24:30;102370.34;;;4.02;100.00
27294;BME280;14785;52.556;13.430;2023-02-28T06:26:56;102379.91;;;4.04;100.00
27294;BME280;14785;52.556;13.430;2023-02-28T06:29:24;102381.44;;;4.08;100.00
27294;BME280;14785;52.556;13.430;2023-02-28T06:31:50;102379.91;;;4.04;100.00
27294;BME280;14785;52.556;13.430;2023-02-28T06:34:15;102380.94;;;4.00;100.00
27294;BME280;14785;52.556;13.430;2023-02-28T06:36:41;102387.28;;;3.96;100.00
27294;BME280;14785;52.556;13.430;2023-02-28T06:39:08;102383.63;;;3.81;100.00
27294;BME280;14785;52.556;13.430;2023-02-28T06:41:34;102392.19;;;3.85;100.00
27294;BME280;14785;52.556;13.430;2023-02-28T06:44:13;102397.06;;;3.75;100.00
27294;BME280;14785;52.556;13.430;2023-02-28T06:46:43;102391.28;;;3.67;100.00
27294;BME280;14785;52.556;13.430;2023-02-28T06:49:10;102392.72;;;3.93;100.00
27294;BME280;14785;52.556;13.430;2023-02-28T06:51:37;102400.38;;;3.60;100.00
27294;BME280;14785;52.556;13.430;2023-02-28T06:54:03;102401.81;;;3.67;100.00
27294;BME280;14785;52.556;13.430;2023-02-28T06:56:29;102399.69;;;3.75;100.00
27294;BME280;14785;52.556;13.430;2023-02-28T06:58:55;102410.06;;;3.78;100.00
27294;BME280;14785;52.556;13.430;2023-02-28T07:01:21;102407.19;;;4.02;100.00
27294;BME280;14785;52.556;13.430;2023-02-28T07:03:49;102407.78;;;3.89;100.00
27294;BME280;14785;52.556;13.430;2023-02-28T07:06:19;102406.94;;;3.70;100.00
27294;BME280;14785;52.556;13.430;2023-02-28T07:08:48;102413.59;;;3.77;100.00
27294;BME280;14785;52.556;13.430;2023-02-28T07:11:13;102404.25;;;3.90;100.00
27294;BME280;14785;52.556;13.430;2023-02-28T07:13:39;102410.91;;;3.79;100.00
27294;BME280;14785;52.556;13.430;2023-02-28T07:16:06;102412.34;;;3.86;100.00
27294;BME280;14785;52.556;13.430;2023-02-28T07:18:34;102413.13;;;4.07;100.00
27294;BME280;14785;52.556;13.430;2023-02-28T07:21:05;102408.47;;;4.12;100.00
27294;BME280;14785;52.556;13.430;2023-02-28T07:23:31;102410.06;;;4.16;100.00
27294;BME280;14785;52.556;13.430;2023-02-28T07:25:56;102412.47;;;4.20;100.00
27294;BME280;14785;52.556;13.430;2023-02-28T07:28:22;102416.88;;;4.20;100.00
27294;BME280;14785;52.556;13.430;2023-02-28T07:30:47;102412.41;;;4.39;100.00
27294;BME280;14785;52.556;13.430;2023-02-28T07:33:13;102417.66;;;4.57;100.00
27294;BME280;14785;52.556;13.430;2023-02-28T07:35:39;102417.38;;;4.45;100.00
27294;BME280;14785;52.556;13.430;2023-02-28T07:38:04;102411.06;;;4.49;100.00
27294;BME280;14785;52.556;13.430;2023-02-28T07:40:30;102405.41;;;4.56;100.00
27294;BME280;14785;52.556;13.430;2023-02-28T07:42:56;102420.09;;;4.79;100.00
27294;BME280;14785;52.556;13.430;2023-02-28T07:45:21;102422.63;;;4.63;100.00
27294;BME280;14785;52.556;13.430;2023-02-28T07:47:47;102412.22;;;4.60;100.00
27294;BME280;14785;52.556;13.430;2023-02-28T07:50:15;102419.69;;;4.69;100.00
27294;BME280;14785;52.556;13.430;2023-02-28T07:52:41;102418.22;;;4.64;100.00
27294;BME280;14785;52.556;13.430;2023-02-28T07:55:08;102416.19;;;4.69;100.00
27294;BME280;14785;52.556;13.430;2023-02-28T07:57:34;102416.34;;;4.66;100.00
27294;BME280;14785;52.556;13.430;2023-02-28T08:00:00;102420.78;;;4.82;100.00
27294;BME280;14785;52.556;13.430;2023-02-28T08:02:26;102425.66;;;4.90;100.00
27294;BME280;14785;52.556;13.430;2023-02-28T08:04:52;102421.25;;;4.90;100.00
27294;BME280;14785;52.556;13.430;2023-02-28T08:07:17;102417.91;;;5.04;100.00
27294;BME280;14785;52.556;13.430;2023-02-28T08:09:43;102424.09;;;5.20;100.00
27294;BME280;14785;52.556;13.430;2023-02-28T08:12:10;102418.34;;;5.29;100.00
27294;BME280;14785;52.556;13.430;2023-02-28T08:14:36;102419.06;;;5.48;100.00
27294;BME280;14785;52.556;13.430;2023-02-28T08:17:02;102425.91;;;5.52;100.00
27294;BME280;14785;52.556;13.430;2023-02-28T08:19:28;102424.31;;;5.65;100.00
27294;BME280;14785;52.556;13.430;2023-02-28T08:21:54;102418.25;;;5.63;100.00
27294;BME280;14785;52.556;13.430;2023-02-28T08:24:21;102420.66;;;5.67;100.00
27294;BME280;14785;52.556;13.430;2023-02-28T08:26:47;102419.66;;;5.70;100.00
27294;BME280;14785;52.556;13.430;2023-02-28T08:29:12;102412.00;;;5.81;100.00
27294;BME280;14785;52.556;13.430;2023-02-28T08:31:38;102424.69;;;5.74;100.00
27294;BME280;14785;52.556;13.430;2023-02-28T08:34:08;102424.78;;;5.73;100.00
27294;BME280;14785;52.556;13.430;2023-02-28T08:36:34;102422.09;;;5.90;100.00
27294;BME280;14785;52.556;13.430;2023-02-28T08:38:59;102425.44;;;5.76;100.00
27294;BME280;14785;52.556;13.430;2023-02-28T08:41:25;102424.72;;;5.25;100.00
27294;BME280;14785;52.556;13.430;2023-02-28T08:43:51;102422.81;;;5.44;100.00
27294;BME280;14785;52.556;13.430;2023-02-28T08:46:19;102420.16;;;5.76;100.00
27294;BME280;14785;52.556;13.430;2023-02-28T08:48:44;102426.13;;;5.80;100.00
27294;BME280;14785;52.556;13.430;2023-02-28T08:51:14;102420.59;;;6.02;100.00
27294;BME280;14785;52.556;13.430;2023-02-28T08:53:46;102425.50;;;6.23;100.00
27294;BME280;14785;52.556;13.430;2023-02-28T08:56:15;102420.22;;;5.92;100.00
27294;BME280;14785;52.556;13.430;2023-02-28T08:58:42;102426.19;;;5.96;100.00
27294;BME280;14785;52.556;13.430;2023-02-28T09:01:19;102432.53;;;5.76;100.00
27294;BME280;14785;52.556;13.430;2023-02-28T09:03:46;102418.72;;;5.71;100.00
27294;BME280;14785;52.556;13.430;2023-02-28T09:06:13;102426.25;;;5.46;100.00
27294;BME280;14785;52.556;13.430;2023-02-28T09:08:39;102427.78;;;5.50;100.00
27294;BME280;14785;52.556;13.430;2023-02-28T09:11:05;102429.94;;;5.59;100.00
27294;BME280;14785;52.556;13.430;2023-02-28T09:13:31;102424.94;;;5.70;100.00
27294;BME280;14785;52.556;13.430;2023-02-28T09:15:58;102421.25;;;5.90;100.00
27294;BME280;14785;52.556;13.430;2023-02-28T09:18:25;102424.66;;;6.38;100.00
27294;BME280;14785;52.556;13.430;2023-02-28T09:20:51;102422.69;;;6.42;100.00
27294;BME280;14785;52.556;13.430;2023-02-28T09:23:16;102427.06;;;6.12;100.00
27294;BME280;14785;52.556;13.430;2023-02-28T09:25:50;102430.06;;;5.73;100.00
27294;BME280;14785;52.556;13.430;2023-02-28T09:28:16;102424.69;;;5.74;100.00
27294;BME280;14785;52.556;13.430;2023-02-28T09:30:44;102411.69;;;5.87;100.00
27294;BME280;14785;52.556;13.430;2023-02-28T09:33:09;102424.59;;;5.76;100.00
27294;BME280;14785;52.556;13.430;2023-02-28T09:35:35;102424.94;;;5.70;100.00
27294;BME280;14785;52.556;13.430;2023-02-28T09:38:02;102424.88;;;5.54;100.00
27294;BME280;14785;52.556;13.430;2023-02-28T09:40:28;102422.94;;;5.58;100.00
27294;BME280;14785;52.556;13.430;2023-02-28T09:42:55;102418.69;;;6.19;100.00
27294;BME280;14785;52.556;13.430;2023-02-28T09:45:29;102417.31;;;6.43;100.00
27294;BME280;14785;52.556;13.430;2023-02-28T09:48:01;102420.19;;;6.54;100.00
27294;BME280;14785;52.556;13.430;2023-02-28T09:50:37;102429.69;;;6.72;100.00
27294;BME280;14785;52.556;13.430;2023-02-28T09:53:37;102428.06;;;6.25;100.00
27294;BME280;14785;52.556;13.430;2023-02-28T09:56:07;102419.72;;;6.32;100.00
27294;BME280;14785;52.556;13.430;2023-02-28T09:59:13;102427.38;;;6.52;100.00
27294;BME280;14785;52.556;13.430;2023-02-28T10:05:01;102428.94;;;6.25;100.00
27294;BME280;14785;52.556;13.430;2023-02-28T10:09:53;102430.22;;;6.63;100.00
27294;BME280;14785;52.556;13.430;2023-02-28T10:12:20;102437.59;;;5.96;100.00
27294;BME280;14785;52.556;13.430;2023-02-28T10:14:47;102436.56;;;6.45;100.00
27294;BME280;14785;52.556;13.430;2023-02-28T10:17:26;102438.81;;;6.06;100.00
27294;BME280;14785;52.556;13.430;2023-02-28T10:20:05;102426.31;;;6.70;100.00
27294;BME280;14785;52.556;13.430;2023-02-28T10:25:19;102428.72;;;7.32;100.00
27294;BME280;14785;52.556;13.430;2023-02-28T10:27:45;102431.47;;;8.01;100.00
27294;BME280;14785;52.556;13.430;2023-02-28T10:30:11;102422.97;;;8.37;100.00
27294;BME280;14785;52.556;13.430;2023-02-28T10:32:37;102426.59;;;8.36;100.00
27294;BME280;14785;52.556;13.430;2023-02-28T10:35:43;102430.50;;;8.57;100.00
27294;BME280;14785;52.556;13.430;2023-02-28T10:38:14;102432.78;;;9.27;100.00
27294;BME280;14785;52.556;13.430;2023-02-28T10:40:40;102424.31;;;9.22;100.00
27294;BME280;14785;52.556;13.430;2023-02-28T10:45:37;102436.41;;;9.26;100.00
27294;BME280;14785;52.556;13.430;2023-02-28T10:51:04;102435.16;;;9.44;100.00
27294;BME280;14785;52.556;13.430;2023-02-28T10:53:32;102431.31;;;9.60;100.00
27294;BME280;14785;52.556;13.430;2023-02-28T10:56:03;102417.44;;;9.93;100.00
27294;BME280;14785;52.556;13.430;2023-02-28T10:58:32;102424.44;;;10.19;100.00
27294;BME280;14785;52.556;13.430;2023-02-28T11:01:13;102416.91;;;10.13;100.00
27294;BME280;14785;52.556;13.430;2023-02-28T11:03:39;102406.94;;;9.79;99.80
27294;BME280;14785;52.556;13.430;2023-02-28T11:08:53;102403.84;;;11.37;100.00
27294;BME280;14785;52.556;13.430;2023-02-28T11:11:20;102402.97;;;11.26;99.78
27294;BME280;14785;52.556;13.430;2023-02-28T11:13:47;102393.94;;;11.95;100.00
27294;BME280;14785;52.556;13.430;2023-02-28T11:16:15;102399.06;;;11.87;93.61
27294;BME280;14785;52.556;13.430;2023-02-28T11:18:55;102392.50;;;11.91;100.00
27294;BME280;14785;52.556;13.430;2023-02-28T11:21:33;102396.59;;;11.50;91.25
27294;BME280;14785;52.556;13.430;2023-02-28T11:26:53;102393.69;;;12.09;94.36
27294;BME280;14785;52.556;13.430;2023-02-28T11:32:18;102395.84;;;12.26;100.00
27294;BME280;14785;52.556;13.430;2023-02-28T11:34:46;102394.19;;;12.03;91.65
27294;BME280;14785;52.556;13.430;2023-02-28T11:37:17;102385.72;;;11.65;92.32
27294;BME280;14785;52.556;13.430;2023-02-28T11:39:45;102390.50;;;12.26;89.80
27294;BME280;14785;52.556;13.430;2023-02-28T11:42:39;102392.69;;;12.21;92.18
27294;BME280;14785;52.556;13.430;2023-02-28T11:45:14;102392.13;;;12.49;100.00
27294;BME280;14785;52.556;13.430;2023-02-28T11:48:05;102392.03;;;12.39;88.32
27294;BME280;14785;52.556;13.430;2023-02-28T11:53:59;102396.94;;;12.23;93.54
27294;BME280;14785;52.556;13.430;2023-02-28T11:56:37;102390.69;;;12.45;98.60
27294;BME280;14785;52.556;13.430;2023-02-28T12:04:52;102386.81;;;13.72;100.00
27294;BME280;14785;52.556;13.430;2023-02-28T12:07:39;102396.63;;;14.60;98.60
27294;BME280;14785;52.556;13.430;2023-02-28T12:21:56;102389.56;;;14.78;83.91
27294;BME280;14785;52.556;13.430;2023-02-28T12:27:34;102370.09;;;14.67;83.62
27294;BME280;14785;52.556;13.430;2023-02-28T12:30:27;102366.88;;;13.95;100.00
27294;BME280;14785;52.556;13.430;2023-02-28T12:33:04;102360.41;;;14.07;92.03
27294;BME280;14785;52.556;13.430;2023-02-28T12:35:42;102352.06;;;14.59;98.69
27294;BME280;14785;52.556;13.430;2023-02-28T12:38:14;102350.31;;;15.15;85.62
27294;BME280;14785;52.556;13.430;2023-02-28T12:40:49;102345.84;;;14.78;80.74
27294;BME280;14785;52.556;13.430;2023-02-28T12:43:17;102337.41;;;14.54;83.74
27294;BME280;14785;52.556;13.430;2023-02-28T12:45:51;102328.03;;;14.10;98.65
27294;BME280;14785;52.556;13.430;2023-02-28T12:48:26;102340.63;;;13.10;95.07
27294;BME280;14785;52.556;13.430;2023-02-28T12:50:54;102325.56;;;14.28;100.00
27294;BME280;14785;52.556;13.430;2023-02-28T12:56:17;102319.66;;;15.27;100.00
27294;BME280;14785;52.556;13.430;2023-02-28T12:58:55;102314.84;;;14.75;86.58
27294;BME280;14785;52.556;13.430;2023-02-28T13:09:38;102292.47;;;13.70;84.35
27294;BME280;14785;52.556;13.430;2023-02-28T13:12:13;102291.59;;;14.28;94.23
27294;BME280;14785;52.556;13.430;2023-02-28T13:14:39;102299.22;;;14.23;87.01
27294;BME280;14785;52.556;13.430;2023-02-28T13:19:45;102297.34;;;14.14;86.67
27294;BME280;14785;52.556;13.430;2023-02-28T13:22:39;102300.78;;;14.35;86.50
27294;BME280;14785;52.556;13.430;2023-02-28T13:27:52;102299.34;;;14.69;100.00
27294;BME280;14785;52.556;13.430;2023-02-28T13:36:10;102307.81;;;14.55;82.57
27294;BME280;14785;52.556;13.430;2023-02-28T13:38:48;102302.41;;;14.74;89.00
27294;BME280;14785;52.556;13.430;2023-02-28T13:41:40;102300.44;;;14.86;100.00
27294;BME280;14785;52.556;13.430;2023-02-28T13:44:17;102300.81;;;15.47;74.59
27294;BME280;14785;52.556;13.430;2023-02-28T14:03:44;102272.72;;;14.39;77.93
27294;BME280;14785;52.556;13.430;2023-02-28T14:06:22;102279.88;;;14.01;79.99
27294;BME280;14785;52.556;13.430;2023-02-28T14:13:58;102277.88;;;13.84;84.31
27294;BME280;14785;52.556;13.430;2023-02-28T14:16:26;102280.69;;;14.77;86.92
27294;BME280;14785;52.556;13.430;2023-02-28T14:19:01;102277.13;;;14.31;98.36
27294;BME280;14785;52.556;13.430;2023-02-28T14:21:34;102285.84;;;14.23;100.00
27294;BME280;14785;52.556;13.430;2023-02-28T14:24:29;102279.00;;;13.81;86.91
27294;BME280;14785;52.556;13.430;2023-02-28T14:38:05;102278.59;;;11.82;97.65
27294;BME280;14785;52.556;13.430;2023-02-28T14:40:34;102275.00;;;12.35;100.00
27294;BME280;14785;52.556;13.430;2023-02-28T14:43:05;102274.53;;;12.30;89.68
27294;BME280;14785;52.556;13.430;2023-02-28T14:45:35;102266.63;;;11.65;92.99
27294;BME280;14785;52.556;13.430;2023-02-28T14:48:04;102264.81;;;11.54;93.67
27294;BME280;14785;52.556;13.430;2023-02-28T14:50:36;102262.84;;;11.79;93.78
27294;BME280;14785;52.556;13.430;2023-02-28T14:53:02;102263.00;;;11.33;96.68
27294;BME280;14785;52.556;13.430;2023-02-28T14:55:30;102255.63;;;11.14;96.12
27294;BME280;14785;52.556;13.430;2023-02-28T14:58:00;102262.38;;;10.85;92.65
27294;BME280;14785;52.556;13.430;2023-02-28T15:00:34;102260.63;;;10.51;97.31
27294;BME280;14785;52.556;13.430;2023-02-28T15:03:11;102265.53;;;10.79;100.00
27294;BME280;14785;52.556;13.430;2023-02-28T15:05:42;102260.25;;;11.01;100.00
27294;BME280;14785;52.556;13.430;2023-02-28T15:08:17;102256.16;;;10.63;100.00
27294;BME280;14785;52.556;13.430;2023-02-28T15:10:50;102257.69;;;11.00;100.00
27294;BME280;14785;52.556;13.430;2023-02-28T15:13:18;102252.34;;;10.78;100.00